createdAt,value
2018-10-19T00:01:56.421Z,83.80
2018-10-19T00:04:23.975Z,83.40
2018-10-19T00:06:51.474Z,82.90
2018-10-19T00:09:19.029Z,82.40
2018-10-19T00:11:46.618Z,82.20
2018-10-19T00:14:14.090Z,82.40
2018-10-19T00:16:41.654Z,82.30
2018-10-19T00:19:09.114Z,82.20
2018-10-19T00:21:36.681Z,81.80
2018-10-19T00:24:04.451Z,81.70
2018-10-19T00:26:32.041Z,83.10
2018-10-19T00:28:59.612Z,84.30
2018-10-19T00:31:27.145Z,85.20
2018-10-19T00:33:54.647Z,86.80
2018-10-19T00:36:22.758Z,87.60
2018-10-19T00:38:50.233Z,88.40
2018-10-19T00:41:18.111Z,89.00
2018-10-19T00:43:45.734Z,89.10
2018-10-19T00:46:13.222Z,89.70
2018-10-19T00:48:40.797Z,90.00
2018-10-19T00:51:08.333Z,90.20
2018-10-19T00:53:35.835Z,90.20
2018-10-19T00:56:03.297Z,89.10
2018-10-19T00:58:30.856Z,95.20
2018-10-19T01:00:58.354Z,93.70
2018-10-19T01:03:25.906Z,93.10
2018-10-19T01:05:53.380Z,94.40
2018-10-19T01:08:20.940Z,94.90
2018-10-19T01:13:15.890Z,85.10
2018-10-19T01:15:43.386Z,84.80
2018-10-19T01:18:10.874Z,84.20
2018-10-19T01:20:38.430Z,84.50
2018-10-19T01:23:05.949Z,83.40
2018-10-19T01:25:33.545Z,83.10
2018-10-19T01:28:01.209Z,83.40
2018-10-19T01:30:28.763Z,83.30
2018-10-19T01:32:56.275Z,83.00
2018-10-19T01:35:23.817Z,82.80
2018-10-19T01:37:51.274Z,83.60
2018-10-19T01:40:18.821Z,83.80
2018-10-19T01:42:46.377Z,84.00
2018-10-19T01:45:14.013Z,84.60
2018-10-19T01:47:42.005Z,84.60
2018-10-19T01:50:10.397Z,84.20
2018-10-19T01:52:38.483Z,84.80
2018-10-19T01:55:05.955Z,84.20
2018-10-19T01:57:33.494Z,83.80
2018-10-19T02:00:01.006Z,83.50
2018-10-19T02:02:28.546Z,83.30
2018-10-19T02:04:56.073Z,83.50
2018-10-19T02:07:23.665Z,83.20
2018-10-19T02:09:51.119Z,83.00
2018-10-19T02:12:18.683Z,82.70
2018-10-19T02:14:46.149Z,82.40
2018-10-19T02:17:13.794Z,82.30
2018-10-19T02:19:41.214Z,83.00
2018-10-19T02:22:08.969Z,84.20
2018-10-19T02:24:36.482Z,83.20
2018-10-19T02:27:04.436Z,82.70
2018-10-19T02:29:32.016Z,82.50
2018-10-19T02:31:59.568Z,82.20
2018-10-19T02:34:27.041Z,82.20
2018-10-19T02:36:54.617Z,82.00
2018-10-19T02:39:22.162Z,82.30
2018-10-19T02:41:49.741Z,83.20
2018-10-19T02:44:17.301Z,82.70
2018-10-19T02:46:44.794Z,82.30
2018-10-19T02:49:12.362Z,82.10
2018-10-19T02:51:39.834Z,81.90
2018-10-19T02:54:08.262Z,81.70
2018-10-19T02:56:35.723Z,81.70
2018-10-19T02:59:03.288Z,81.90
2018-10-19T03:01:30.723Z,82.50
2018-10-19T03:03:58.311Z,82.60
2018-10-19T03:06:25.782Z,82.30
2018-10-19T03:08:53.359Z,82.20
2018-10-19T03:11:20.853Z,82.10
2018-10-19T03:13:48.321Z,82.00
2018-10-19T03:16:15.883Z,81.80
2018-10-19T03:18:43.386Z,82.30
2018-10-19T03:21:11.003Z,82.70
2018-10-19T03:23:38.623Z,82.70
2018-10-19T03:26:07.055Z,82.40
2018-10-19T03:28:34.557Z,82.20
2018-10-19T03:31:02.628Z,82.20
2018-10-19T03:33:30.119Z,82.00
2018-10-19T03:35:57.728Z,81.70
2018-10-19T03:38:25.210Z,81.50
2018-10-19T03:40:52.805Z,81.50
2018-10-19T03:43:20.315Z,82.00
2018-10-19T03:45:47.913Z,82.40
2018-10-19T03:48:15.371Z,82.50
2018-10-19T03:50:42.901Z,82.80
2018-10-19T03:53:10.493Z,83.50
2018-10-19T03:55:37.951Z,83.70
2018-10-19T03:58:05.513Z,83.30
2018-10-19T04:00:33.009Z,82.80
2018-10-19T04:03:01.081Z,82.30
2018-10-19T04:05:28.531Z,81.90
2018-10-19T04:07:56.061Z,81.60
2018-10-19T04:10:23.550Z,81.70
2018-10-19T04:12:51.106Z,81.70
2018-10-19T04:15:18.733Z,81.50
2018-10-19T04:17:46.186Z,81.50
2018-10-19T04:20:13.707Z,81.50
2018-10-19T04:22:41.265Z,82.20
2018-10-19T04:25:08.807Z,82.20
2018-10-19T04:27:36.327Z,82.10
2018-10-19T04:30:05.119Z,82.00
2018-10-19T04:32:32.646Z,81.90
2018-10-19T04:35:00.242Z,82.20
2018-10-19T04:37:27.863Z,83.10
2018-10-19T04:39:55.415Z,82.90
2018-10-19T04:42:23.027Z,82.90
2018-10-19T04:44:50.586Z,83.70
2018-10-19T04:47:24.261Z,83.90
2018-10-19T04:49:51.810Z,84.10
2018-10-19T04:52:19.281Z,83.80
2018-10-19T04:54:46.825Z,83.40
2018-10-19T04:57:14.320Z,82.80
2018-10-19T04:59:42.958Z,82.50
2018-10-19T05:02:10.470Z,82.60
2018-10-19T05:04:38.122Z,83.10
2018-10-19T05:07:05.538Z,83.40
2018-10-19T05:09:33.094Z,84.00
2018-10-19T05:12:00.889Z,84.70
2018-10-19T05:14:28.444Z,85.00
2018-10-19T05:16:55.953Z,85.10
2018-10-19T05:19:23.509Z,84.60
2018-10-19T05:21:51.010Z,84.40
2018-10-19T05:24:18.565Z,84.40
2018-10-19T05:26:46.089Z,84.10
2018-10-19T05:29:13.693Z,84.00
2018-10-19T05:31:41.145Z,84.10
2018-10-19T05:34:08.611Z,83.80
2018-10-19T05:36:36.177Z,83.50
2018-10-19T05:39:06.452Z,83.30
2018-10-19T05:41:34.000Z,82.90
2018-10-19T05:44:01.627Z,82.80
2018-10-19T05:46:29.122Z,83.10
2018-10-19T05:48:56.603Z,83.50
2018-10-19T05:51:24.145Z,83.60
2018-10-19T05:53:52.681Z,83.60
2018-10-19T05:56:20.509Z,82.50
2018-10-19T05:58:48.016Z,82.40
2018-10-19T06:01:15.638Z,82.40
2018-10-19T06:03:43.141Z,82.50
2018-10-19T06:06:10.617Z,82.70
2018-10-19T06:08:38.140Z,83.10
2018-10-19T06:11:05.647Z,83.20
2018-10-19T06:13:33.235Z,83.20
2018-10-19T06:16:00.812Z,83.20
2018-10-19T06:18:28.529Z,83.80
2018-10-19T06:20:56.049Z,84.20
2018-10-19T06:23:23.592Z,84.50
2018-10-19T06:25:51.067Z,84.30
2018-10-19T06:28:18.627Z,84.70
2018-10-19T06:30:46.133Z,85.60
2018-10-19T06:33:13.685Z,85.60
2018-10-19T06:35:41.470Z,86.30
2018-10-19T06:38:09.297Z,87.30
2018-10-19T06:40:37.551Z,87.70
2018-10-19T06:43:05.990Z,87.70
2018-10-19T06:45:34.308Z,87.60
2018-10-19T06:48:02.169Z,87.50
2018-10-19T06:50:29.833Z,87.50
2018-10-19T06:52:57.389Z,87.20
2018-10-19T06:55:24.953Z,87.10
2018-10-19T06:57:52.431Z,86.90
2018-10-19T07:00:19.986Z,87.30
2018-10-19T07:02:47.503Z,88.40
2018-10-19T07:05:15.183Z,88.90
2018-10-19T07:07:42.656Z,89.60
2018-10-19T07:10:10.541Z,89.80
2018-10-19T07:12:38.494Z,89.80
2018-10-19T07:15:07.023Z,89.70
2018-10-19T07:17:34.647Z,89.50
2018-10-19T07:20:02.244Z,90.00
2018-10-19T07:22:29.887Z,89.80
2018-10-19T07:24:57.369Z,90.00
2018-10-19T07:27:24.991Z,90.40
2018-10-19T07:29:52.486Z,90.60
2018-10-19T07:32:20.032Z,90.50
2018-10-19T07:34:47.548Z,90.50
2018-10-19T07:37:15.108Z,90.60
2018-10-19T07:39:42.601Z,90.60
2018-10-19T07:42:10.297Z,90.70
2018-10-19T07:44:37.738Z,90.80
2018-10-19T07:47:05.513Z,91.20
2018-10-19T07:49:32.912Z,91.40
2018-10-19T07:52:00.490Z,91.70
2018-10-19T07:54:28.005Z,92.00
2018-10-19T07:56:55.489Z,92.30
2018-10-19T07:59:23.045Z,92.70
2018-10-19T08:01:50.577Z,93.00
2018-10-19T08:04:18.101Z,93.40
2018-10-19T08:09:13.057Z,93.10
2018-10-19T08:14:08.093Z,93.60
2018-10-19T08:16:35.589Z,93.50
2018-10-19T08:19:03.263Z,93.20
2018-10-19T08:21:30.820Z,93.00
2018-10-19T08:23:58.366Z,93.10
2018-10-19T08:26:25.949Z,93.20
2018-10-19T08:28:53.543Z,93.50
2018-10-19T08:31:21.121Z,93.60
2018-10-19T08:33:48.669Z,93.60
2018-10-19T08:36:16.314Z,93.40
2018-10-19T08:38:43.869Z,93.30
2018-10-19T08:41:11.487Z,93.10
2018-10-19T08:43:39.022Z,92.90
2018-10-19T08:46:12.268Z,92.50
2018-10-19T08:48:39.787Z,91.80
2018-10-19T08:51:07.989Z,90.70
2018-10-19T08:53:35.472Z,90.40
2018-10-19T08:56:03.047Z,89.80
2018-10-19T08:58:30.513Z,89.20
2018-10-19T09:00:58.141Z,88.10
2018-10-19T09:03:25.640Z,87.00
2018-10-19T09:05:53.240Z,85.30
2018-10-19T09:08:20.690Z,82.90
2018-10-19T09:10:48.340Z,83.50
2018-10-19T09:13:15.777Z,82.50
2018-10-19T09:15:43.440Z,82.40
2018-10-19T09:18:11.440Z,80.20
2018-10-19T09:20:38.977Z,81.30
2018-10-19T09:23:06.570Z,79.80
2018-10-19T09:25:34.040Z,79.70
2018-10-19T09:28:01.610Z,80.00
2018-10-19T09:30:29.078Z,79.60
2018-10-19T09:32:56.654Z,80.30
2018-10-19T09:35:24.117Z,80.40
2018-10-19T09:37:51.707Z,80.30
2018-10-19T09:40:19.224Z,81.20
2018-10-19T09:42:46.886Z,81.00
2018-10-19T09:45:14.444Z,81.30
2018-10-19T09:47:41.947Z,82.80
2018-10-19T09:50:09.478Z,82.90
2018-10-19T09:52:37.147Z,82.30
2018-10-19T09:55:05.749Z,82.50
2018-10-19T09:57:33.331Z,83.20
2018-10-19T10:00:00.904Z,84.20
2018-10-19T10:02:28.473Z,84.60
2018-10-19T10:04:55.954Z,83.10
2018-10-19T10:07:23.471Z,84.80
2018-10-19T10:09:51.080Z,85.30
2018-10-19T10:12:18.590Z,83.60
2018-10-19T10:14:46.257Z,83.60
2018-10-19T10:17:13.785Z,83.20
2018-10-19T10:19:41.327Z,83.60
2018-10-19T10:22:08.877Z,82.20
2018-10-19T10:24:36.492Z,81.90
2018-10-19T10:27:04.092Z,82.80
2018-10-19T10:29:31.689Z,81.60
2018-10-19T10:31:59.227Z,80.70
2018-10-19T10:34:26.776Z,79.20
2018-10-19T10:36:54.311Z,78.60
2018-10-19T10:39:21.965Z,78.90
2018-10-19T10:41:49.446Z,78.20
2018-10-19T10:44:17.054Z,79.00
2018-10-19T10:46:44.613Z,78.40
2018-10-19T10:49:12.146Z,78.00
2018-10-19T10:51:39.670Z,78.60
2018-10-19T10:54:07.193Z,78.50
2018-10-19T10:56:34.826Z,76.90
2018-10-19T10:59:02.708Z,76.90
2018-10-19T11:01:30.387Z,76.50
2018-10-19T11:03:57.945Z,76.70
2018-10-19T11:06:25.493Z,76.50
2018-10-19T11:08:53.032Z,75.10
2018-10-19T11:11:20.646Z,75.70
2018-10-19T11:13:48.176Z,73.90
2018-10-19T11:16:15.936Z,74.30
2018-10-19T11:18:43.403Z,74.50
2018-10-19T11:21:10.992Z,73.60
2018-10-19T11:23:38.565Z,73.60
2018-10-19T11:26:06.241Z,74.30
2018-10-19T11:28:33.811Z,73.20
2018-10-19T11:31:01.920Z,72.90
2018-10-19T11:33:29.505Z,73.40
2018-10-19T11:35:57.121Z,73.20
2018-10-19T11:38:24.940Z,73.50
2018-10-19T11:40:52.522Z,73.80
2018-10-19T11:43:20.103Z,71.70
2018-10-19T11:45:47.695Z,72.40
2018-10-19T11:48:15.266Z,71.90
2018-10-19T11:50:42.812Z,71.10
2018-10-19T11:53:10.339Z,72.00
2018-10-19T11:55:37.988Z,70.90
2018-10-19T11:58:05.555Z,69.90
2018-10-19T12:00:33.150Z,70.80
2018-10-19T12:03:00.724Z,69.30
2018-10-19T12:05:28.344Z,69.20
2018-10-19T12:07:55.854Z,70.20
2018-10-19T12:10:23.440Z,68.90
2018-10-19T12:12:50.999Z,69.30
2018-10-19T12:15:18.604Z,69.10
2018-10-19T12:17:46.182Z,70.20
2018-10-19T12:20:14.995Z,70.30
2018-10-19T12:22:42.582Z,68.40
2018-10-19T12:25:11.160Z,68.20
2018-10-19T12:27:39.090Z,69.10
2018-10-19T12:30:07.189Z,68.70
2018-10-19T12:32:34.831Z,68.30
2018-10-19T12:35:02.634Z,67.90
2018-10-19T12:37:30.263Z,68.20
2018-10-19T12:39:57.760Z,69.00
2018-10-19T12:42:25.482Z,67.90
2018-10-19T12:44:53.041Z,69.70
2018-10-19T12:47:43.073Z,68.60
2018-10-19T12:50:10.626Z,68.40
2018-10-19T12:52:38.226Z,69.90
2018-10-19T12:55:07.267Z,68.80
2018-10-19T12:57:34.926Z,66.90
2018-10-19T13:00:02.724Z,67.90
2018-10-19T13:02:30.319Z,67.90
2018-10-19T13:04:57.885Z,66.30
2018-10-19T13:07:25.569Z,65.60
2018-10-19T13:09:53.080Z,67.70
2018-10-19T13:12:20.680Z,66.70
2018-10-19T13:14:48.300Z,64.70
2018-10-19T13:17:15.920Z,64.40
2018-10-19T13:19:43.451Z,64.60
2018-10-19T13:22:10.971Z,64.20
2018-10-19T13:24:38.686Z,64.80
2018-10-19T13:27:06.324Z,64.50
2018-10-19T13:29:33.903Z,64.30
2018-10-19T13:32:01.437Z,63.40
2018-10-19T13:34:29.070Z,64.40
2018-10-19T13:36:56.614Z,66.00
2018-10-19T13:39:24.241Z,65.80
2018-10-19T13:41:51.919Z,67.20
2018-10-19T13:44:19.536Z,66.80
2018-10-19T13:46:47.090Z,66.40
2018-10-19T13:49:14.723Z,67.10
2018-10-19T13:51:42.272Z,67.20
2018-10-19T13:54:09.880Z,66.00
2018-10-19T13:56:37.468Z,66.10
2018-10-19T13:59:05.217Z,66.60
2018-10-19T14:01:32.757Z,66.70
2018-10-19T14:04:00.371Z,68.00
2018-10-19T14:06:27.922Z,67.30
2018-10-19T14:08:55.570Z,68.00
2018-10-19T14:11:23.194Z,67.70
2018-10-19T14:13:50.788Z,67.00
2018-10-19T14:16:18.428Z,68.10
2018-10-19T14:18:46.006Z,68.10
2018-10-19T14:21:13.811Z,68.10
2018-10-19T14:23:41.247Z,68.00
2018-10-19T14:26:08.888Z,67.90
2018-10-19T14:28:36.452Z,68.00
2018-10-19T14:31:04.111Z,68.10
2018-10-19T14:33:31.840Z,67.70
2018-10-19T14:35:59.293Z,68.60
2018-10-19T14:38:26.838Z,66.70
2018-10-19T14:40:54.491Z,66.90
2018-10-19T14:43:22.113Z,66.40
2018-10-19T14:45:49.782Z,66.60
2018-10-19T14:48:17.391Z,66.30
2018-10-19T14:50:45.024Z,67.50
2018-10-19T14:53:12.795Z,66.30
2018-10-19T14:55:40.206Z,65.50
2018-10-19T14:58:07.875Z,65.40
2018-10-19T15:00:35.429Z,65.60
2018-10-19T15:03:03.059Z,65.70
2018-10-19T15:05:30.635Z,66.40
2018-10-19T15:07:58.290Z,67.10
2018-10-19T15:10:26.006Z,67.00
2018-10-19T15:12:53.465Z,66.30
2018-10-19T15:15:22.226Z,66.30
2018-10-19T15:17:50.043Z,65.70
2018-10-19T15:20:17.848Z,65.40
2018-10-19T15:22:45.545Z,64.10
2018-10-19T15:25:13.328Z,63.70
2018-10-19T15:27:42.229Z,64.50
2018-10-19T15:30:11.476Z,65.10
2018-10-19T15:32:39.024Z,65.60
2018-10-19T15:35:07.006Z,65.70
2018-10-19T15:37:34.541Z,65.80
2018-10-19T15:40:02.173Z,66.40
2018-10-19T15:42:29.833Z,65.70
2018-10-19T15:44:57.511Z,66.40
2018-10-19T15:47:27.532Z,66.70
2018-10-19T15:49:56.401Z,66.80
2018-10-19T15:52:23.987Z,67.00
2018-10-19T15:54:51.977Z,67.00
2018-10-19T15:57:19.669Z,67.20
2018-10-19T15:59:47.270Z,67.30
2018-10-19T16:02:15.257Z,67.60
2018-10-19T16:04:42.776Z,67.80
2018-10-19T16:07:10.432Z,67.70
2018-10-19T16:09:37.912Z,67.80
2018-10-19T16:12:05.523Z,67.90
2018-10-19T16:14:33.059Z,67.90
2018-10-19T16:17:01.022Z,68.10
2018-10-19T16:19:28.530Z,68.10
2018-10-19T16:21:56.114Z,68.20
2018-10-19T16:24:23.631Z,68.00
2018-10-19T16:26:51.337Z,68.30
2018-10-19T16:29:18.878Z,68.30
2018-10-19T16:31:46.522Z,68.40
2018-10-19T16:34:14.110Z,68.60
2018-10-19T16:36:41.739Z,68.80
2018-10-19T16:39:10.134Z,69.00
2018-10-19T16:41:37.702Z,69.00
2018-10-19T16:44:05.421Z,69.20
2018-10-19T16:46:32.944Z,69.30
2018-10-19T16:49:00.977Z,69.70
2018-10-19T16:51:28.542Z,69.90
2018-10-19T16:53:56.253Z,70.30
2018-10-19T16:56:23.713Z,70.60
2018-10-19T16:58:51.357Z,70.80
2018-10-19T17:01:19.039Z,71.10
2018-10-19T17:03:46.654Z,71.10
2018-10-19T17:06:14.265Z,71.10
2018-10-19T17:08:41.885Z,71.10
2018-10-19T17:11:09.438Z,70.70
2018-10-19T17:13:37.065Z,71.40
2018-10-19T17:16:04.838Z,71.90
2018-10-19T17:18:32.525Z,72.20
2018-10-19T17:21:00.171Z,72.50
2018-10-19T17:23:27.847Z,72.80
2018-10-19T17:25:55.395Z,72.80
2018-10-19T17:28:23.024Z,72.90
2018-10-19T17:30:50.674Z,73.20
2018-10-19T17:33:18.544Z,73.50
2018-10-19T17:35:46.125Z,73.70
2018-10-19T17:38:13.662Z,73.90
2018-10-19T17:40:41.317Z,75.10
2018-10-19T17:43:09.010Z,74.50
2018-10-19T17:45:36.638Z,74.60
2018-10-19T17:48:04.397Z,74.70
2018-10-19T17:50:32.013Z,74.60
2018-10-19T17:52:59.672Z,74.80
2018-10-19T17:55:27.109Z,75.20
2018-10-19T17:57:54.746Z,75.30
2018-10-19T18:00:22.318Z,75.60
2018-10-19T18:02:49.938Z,75.60
2018-10-19T18:05:17.541Z,75.70
2018-10-19T18:07:45.154Z,75.80
2018-10-19T18:10:12.674Z,76.10
2018-10-19T18:12:40.393Z,76.70
2018-10-19T18:15:08.193Z,78.10
2018-10-19T18:17:36.334Z,78.60
2018-10-19T18:20:04.084Z,78.30
2018-10-19T18:22:31.718Z,77.70
2018-10-19T18:25:00.001Z,77.70
2018-10-19T18:27:27.695Z,77.30
2018-10-19T18:29:55.378Z,77.50
2018-10-19T18:32:23.106Z,77.10
2018-10-19T18:34:50.758Z,76.90
2018-10-19T18:37:18.305Z,76.50
2018-10-19T18:39:45.839Z,76.50
2018-10-19T18:42:13.571Z,77.10
2018-10-19T18:44:41.122Z,77.90
2018-10-19T18:47:08.853Z,78.00
2018-10-19T18:49:36.286Z,77.60
2018-10-19T18:52:03.922Z,77.60
2018-10-19T18:54:31.536Z,78.20
2018-10-19T18:56:59.202Z,78.00
2018-10-19T18:59:26.766Z,77.70
2018-10-19T19:01:54.415Z,77.40
2018-10-19T19:04:21.971Z,77.10
2018-10-19T19:06:50.451Z,77.00
2018-10-19T19:09:18.064Z,77.40
2018-10-19T19:11:46.299Z,77.00
2018-10-19T19:14:13.984Z,77.00
2018-10-19T19:16:41.551Z,76.90
2018-10-19T19:19:09.329Z,77.00
2018-10-19T19:21:36.964Z,77.30
2018-10-19T19:24:10.229Z,77.40
2018-10-19T19:26:37.790Z,77.30
2018-10-19T19:29:05.495Z,77.30
2018-10-19T19:31:33.019Z,77.20
2018-10-19T19:34:06.288Z,77.50
2018-10-19T19:36:33.903Z,78.30
2018-10-19T19:39:01.553Z,78.60
2018-10-19T19:41:34.880Z,78.70
2018-10-19T19:44:02.612Z,78.70
2018-10-19T19:46:30.292Z,78.60
2018-10-19T19:49:03.585Z,78.70
2018-10-19T19:51:31.126Z,80.40
2018-10-19T19:53:58.698Z,80.50
2018-10-19T19:56:26.378Z,80.10
2018-10-19T19:58:53.912Z,80.10
2018-10-19T20:01:21.491Z,79.80
2018-10-19T20:03:49.015Z,79.60
2018-10-19T20:06:16.709Z,79.40
2018-10-19T20:08:44.182Z,80.40
2018-10-19T20:11:11.881Z,81.00
2018-10-19T20:13:39.359Z,81.50
2018-10-19T20:16:06.989Z,81.10
2018-10-19T20:18:34.544Z,81.00
2018-10-19T20:21:02.232Z,81.60
2018-10-19T20:23:29.865Z,82.30
2018-10-19T20:25:57.570Z,83.00
2018-10-19T20:28:25.061Z,84.20
2018-10-19T20:30:52.702Z,84.20
2018-10-19T20:33:20.271Z,84.40
2018-10-19T20:35:47.778Z,83.70
2018-10-19T20:38:15.380Z,82.80
2018-10-19T20:40:42.952Z,82.10
2018-10-19T20:43:10.610Z,81.60
2018-10-19T20:45:38.145Z,81.50
2018-10-19T20:48:05.782Z,81.20
2018-10-19T20:50:33.294Z,80.80
2018-10-19T20:53:00.934Z,80.60
2018-10-19T20:55:28.560Z,80.30
2018-10-19T20:57:56.054Z,80.30
2018-10-19T21:00:23.633Z,80.50
2018-10-19T21:02:51.195Z,81.20
2018-10-19T21:05:18.775Z,81.20
2018-10-19T21:07:46.328Z,81.00
2018-10-19T21:10:14.285Z,80.90
2018-10-19T21:12:41.825Z,80.90
2018-10-19T21:15:11.774Z,81.80
2018-10-19T21:17:39.800Z,82.70
2018-10-19T21:20:08.580Z,82.80
2018-10-19T21:22:36.480Z,82.90
2018-10-19T21:25:04.779Z,82.60
2018-10-19T21:27:32.326Z,82.30
2018-10-19T21:30:00.070Z,81.90
2018-10-19T21:32:27.495Z,82.00
2018-10-19T21:34:55.210Z,82.70
2018-10-19T21:37:22.785Z,83.80
2018-10-19T21:39:50.398Z,83.40
2018-10-19T21:42:18.173Z,83.70
2018-10-19T21:44:45.805Z,83.50
2018-10-19T21:47:13.530Z,83.20
2018-10-19T21:49:40.996Z,83.00
2018-10-19T21:52:08.599Z,82.80
2018-10-19T21:54:36.122Z,83.50
2018-10-19T21:57:03.994Z,84.40
2018-10-19T21:59:31.533Z,84.90
2018-10-19T22:01:59.174Z,85.90
2018-10-19T22:04:26.712Z,85.40
2018-10-19T22:06:54.324Z,84.60
2018-10-19T22:09:21.842Z,84.00
2018-10-19T22:11:49.591Z,83.40
2018-10-19T22:14:17.118Z,83.00
2018-10-19T22:16:44.719Z,83.00
2018-10-19T22:19:12.369Z,83.00
2018-10-19T22:21:40.479Z,82.70
2018-10-19T22:24:08.936Z,82.40
2018-10-19T22:26:36.549Z,82.20
2018-10-19T22:29:04.433Z,82.30
2018-10-19T22:31:31.975Z,82.80
2018-10-19T22:33:59.530Z,82.90
2018-10-19T22:36:27.110Z,82.80
2018-10-19T22:38:54.723Z,82.30
2018-10-19T22:41:22.202Z,82.10
2018-10-19T22:43:50.147Z,81.60
2018-10-19T22:46:17.763Z,81.60
2018-10-19T22:48:45.352Z,81.70
2018-10-19T22:51:12.874Z,82.30
2018-10-19T22:53:40.466Z,82.20
2018-10-19T22:56:07.957Z,82.60
2018-10-19T22:58:35.454Z,83.40
2018-10-19T23:01:03.086Z,83.60
2018-10-19T23:03:30.592Z,83.90
2018-10-19T23:05:58.170Z,84.30
2018-10-19T23:08:25.655Z,84.20
2018-10-19T23:10:53.313Z,84.00
2018-10-19T23:13:20.752Z,83.90
2018-10-19T23:15:48.342Z,83.80
2018-10-19T23:18:15.870Z,83.50
2018-10-19T23:20:43.557Z,83.10
2018-10-19T23:23:11.207Z,83.20
2018-10-19T23:25:38.795Z,83.20
2018-10-19T23:28:06.338Z,82.90
2018-10-19T23:30:33.944Z,82.30
2018-10-19T23:33:01.450Z,82.10
2018-10-19T23:35:29.039Z,83.00
2018-10-19T23:37:56.562Z,83.70
2018-10-19T23:40:24.141Z,83.80
2018-10-19T23:42:51.749Z,83.70
2018-10-19T23:45:19.266Z,83.10
2018-10-19T23:47:46.889Z,82.80
2018-10-19T23:50:14.393Z,82.60
2018-10-19T23:52:41.954Z,82.60
2018-10-19T23:55:09.512Z,82.50
2018-10-19T23:57:37.006Z,82.20
